Time;durP1;ratioP1;P1;durP2;ratioP2;P2;SDS_P1;SDS_P2;PMS_P1;PMS_P2;Temp;Humidity;BMP_temperature;BMP_pressure;BME280_temperature;BME280_humidity;BME280_pressure;Samples;Min_cycle;Max_cycle;Signal;HPM_P1;HPM_P2
2023/12/13 00:02:14;;;;;;;;;;;;;;;6.62;82.40;98613.13;4391568;32;32232;-83
2023/12/13 00:04:49;;;;;;;;;;;;;;;6.70;82.53;98611.28;4394209;32;33747;-85
2023/12/13 00:07:21;;;;;;;;;;;;;;;6.73;82.26;98600.91;4390781;32;34408;-83
2023/12/13 00:09:50;;;;;;;;;;;;;;;6.96;81.35;98594.53;4391926;32;35004;-84
2023/12/13 00:12:18;;;;;;;;;;;;;;;6.79;82.01;98592.22;4396386;32;32650;-83
2023/12/13 00:14:53;;;;;;;;;;;;;;;5.96;88.59;98581.34;4396152;32;33859;-83
2023/12/13 00:17:22;;;;;;;;;;;;;;;6.63;86.13;98579.59;4394479;32;34589;-84
2023/12/13 00:19:52;;;;;;;;;;;;;;;7.12;82.42;98580.53;4390667;32;34459;-84
2023/12/13 00:22:22;;;;;;;;;;;;;;;7.32;80.50;98579.31;4392910;32;32391;-83
2023/12/13 00:24:56;;;;;;;;;;;;;;;7.25;80.31;98574.28;4399173;32;34005;-84
2023/12/13 00:27:25;;;;;;;;;;;;;;;6.62;82.71;98562.44;4392546;32;33967;-84
2023/12/13 00:29:54;;;;;;;;;;;;;;;6.53;86.73;98560.00;4393960;32;35120;-84
2023/12/13 00:32:23;;;;;;;;;;;;;;;6.78;84.66;98564.75;4381677;32;33536;-84
2023/12/13 00:34:58;;;;;;;;;;;;;;;5.83;90.24;98543.75;4400061;32;33885;-85
2023/12/13 00:37:28;;;;;;;;;;;;;;;6.52;89.52;98554.84;4387608;32;33784;-84
2023/12/13 00:40:00;;;;;;;;;;;;;;;7.19;83.70;98553.75;4387020;32;34569;-85
2023/12/13 00:42:33;;;;;;;;;;;;;;;7.23;82.61;98552.81;4386324;32;32536;-85
2023/12/13 00:45:11;;;;;;;;;;;;;;;6.76;84.07;98551.03;4401240;32;33567;-84
2023/12/13 00:47:40;;;;;;;;;;;;;;;5.45;95.54;98545.06;4405825;32;35001;-84
2023/12/13 00:50:10;;;;;;;;;;;;;;;5.43;97.23;98544.22;4383685;32;32469;-86
2023/12/13 00:52:45;;;;;;;;;;;;;;;5.99;93.74;98547.00;4391473;32;33205;-85
2023/12/13 00:55:14;;;;;;;;;;;;;;;6.09;93.38;98542.59;4386600;32;33894;-85
2023/12/13 00:57:51;;;;;;;;;;;;;;;6.29;90.11;98545.75;4387176;32;34289;-85
2023/12/13 01:00:19;;;;;;;;;;;;;;;6.40;91.45;98541.31;4391955;32;34810;-85
2023/12/13 01:02:53;;;;;;;;;;;;;;;7.03;86.30;98542.00;4390340;32;32863;-85
2023/12/13 01:05:21;;;;;;;;;;;;;;;6.84;85.50;98541.47;4387555;32;34407;-85
2023/12/13 01:07:57;;;;;;;;;;;;;;;6.73;86.13;98539.06;4390520;32;34231;-85
2023/12/13 01:10:25;;;;;;;;;;;;;;;6.87;85.51;98528.53;4399711;32;34628;-86
2023/12/13 01:12:57;;;;;;;;;;;;;;;7.22;83.02;98530.50;4402692;32;32898;-85
2023/12/13 01:15:34;;;;;;;;;;;;;;;7.14;83.83;98524.63;4385708;32;33563;-85
2023/12/13 01:18:02;;;;;;;;;;;;;;;7.13;83.67;98512.59;4395834;32;33549;-85
2023/12/13 01:20:31;;;;;;;;;;;;;;;7.04;84.01;98515.34;4396834;32;35323;-86
2023/12/13 01:23:02;;;;;;;;;;;;;;;7.11;83.29;98506.63;4402822;32;33717;-86
2023/12/13 01:25:31;;;;;;;;;;;;;;;7.12;83.16;98503.16;4393666;32;33760;-86
2023/12/13 01:28:03;;;;;;;;;;;;;;;7.32;82.20;98496.75;4392187;32;34283;-85
2023/12/13 01:30:39;;;;;;;;;;;;;;;6.97;82.78;98503.44;4390410;32;33995;-86
2023/12/13 01:33:07;;;;;;;;;;;;;;;6.48;87.28;98494.81;4396386;32;33368;-86
2023/12/13 01:35:36;;;;;;;;;;;;;;;6.54;88.15;98491.28;4396612;32;34725;-86
2023/12/13 01:38:06;;;;;;;;;;;;;;;6.37;90.33;98484.66;4395176;32;33934;-87
2023/12/13 01:40:36;;;;;;;;;;;;;;;6.26;90.53;98483.13;4395632;32;33195;-86
2023/12/13 01:43:07;;;;;;;;;;;;;;;5.83;93.97;98478.56;4401043;32;32449;-86
2023/12/13 01:45:38;;;;;;;;;;;;;;;6.45;90.27;98476.81;4396955;32;34078;-86
2023/12/13 01:48:07;;;;;;;;;;;;;;;6.64;87.62;98474.78;4402805;32;33562;-87
2023/12/13 01:50:36;;;;;;;;;;;;;;;6.10;91.55;98464.47;4396215;32;34356;-87
2023/12/13 01:53:10;;;;;;;;;;;;;;;5.99;93.35;98451.75;4405500;32;33473;-87
2023/12/13 01:55:39;;;;;;;;;;;;;;;5.76;94.36;98454.63;4401777;32;33666;-87
2023/12/13 01:58:11;;;;;;;;;;;;;;;6.32;92.57;98447.81;4402778;32;34935;-86
2023/12/13 02:00:39;;;;;;;;;;;;;;;6.73;86.92;98451.44;4386434;32;33445;-86
2023/12/13 02:03:11;;;;;;;;;;;;;;;6.55;87.76;98444.03;4390289;32;32616;-86
2023/12/13 02:05:43;;;;;;;;;;;;;;;6.90;85.30;98429.66;4386193;32;34943;-87
2023/12/13 02:08:13;;;;;;;;;;;;;;;6.63;86.69;98431.84;4391308;32;34705;-87
2023/12/13 02:10:43;;;;;;;;;;;;;;;6.22;89.57;98420.53;4388369;32;34343;-87
2023/12/13 02:13:17;;;;;;;;;;;;;;;6.16;89.54;98412.88;4386766;32;33029;-87
2023/12/13 02:15:47;;;;;;;;;;;;;;;6.25;90.92;98411.88;4387254;32;33594;-85
2023/12/13 02:18:16;;;;;;;;;;;;;;;6.90;86.32;98409.03;4386878;32;33732;-88
2023/12/13 02:20:53;;;;;;;;;;;;;;;6.24;90.15;98405.06;4390684;32;34630;-87
2023/12/13 02:23:22;;;;;;;;;;;;;;;6.10;92.34;98400.13;4386398;32;33520;-88
2023/12/13 02:25:53;;;;;;;;;;;;;;;6.22;89.25;98399.91;4386387;32;33587;-87
2023/12/13 02:28:22;;;;;;;;;;;;;;;5.79;93.40;98392.81;4395967;32;35022;-86
2023/12/13 02:30:51;;;;;;;;;;;;;;;5.80;93.31;98391.97;4404155;32;33801;-87
2023/12/13 02:33:22;;;;;;;;;;;;;;;5.46;95.72;98391.56;4397274;32;32985;-84
2023/12/13 02:35:51;;;;;;;;;;;;;;;5.93;93.50;98383.16;4395690;32;34106;-84
2023/12/13 02:38:20;;;;;;;;;;;;;;;5.78;93.02;98373.97;4395547;32;35057;-85
2023/12/13 02:40:53;;;;;;;;;;;;;;;5.99;91.84;98384.81;4394479;32;33322;-84
2023/12/13 02:43:24;;;;;;;;;;;;;;;5.84;92.14;98375.59;4396407;32;33774;-84
2023/12/13 02:48:27;;;;;;;;;;;;;;;6.16;90.50;98372.56;4400697;32;33810;-86
2023/12/13 02:50:55;;;;;;;;;;;;;;;5.94;90.34;98373.75;4394732;32;34874;-86
2023/12/13 02:53:25;;;;;;;;;;;;;;;5.54;92.67;98369.19;4398153;32;35308;-86
2023/12/13 02:55:56;;;;;;;;;;;;;;;5.83;91.57;98361.03;4406101;32;34486;-87
2023/12/13 02:58:27;;;;;;;;;;;;;;;6.32;87.92;98357.66;4398382;32;34306;-87
2023/12/13 03:00:57;;;;;;;;;;;;;;;6.47;87.06;98351.38;4388897;32;33345;-87
2023/12/13 03:03:26;;;;;;;;;;;;;;;6.49;86.44;98359.94;4402337;32;32949;-88
2023/12/13 03:05:54;;;;;;;;;;;;;;;6.79;83.82;98373.12;4395204;32;33113;-87
2023/12/13 03:08:28;;;;;;;;;;;;;;;6.35;84.61;98375.63;4394584;32;33355;-87
2023/12/13 03:11:07;;;;;;;;;;;;;;;5.94;88.35;98369.47;4389941;32;34098;-88
2023/12/13 03:13:36;;;;;;;;;;;;;;;6.39;87.17;98366.16;4381408;32;33575;-88
2023/12/13 03:16:05;;;;;;;;;;;;;;;6.68;84.48;98354.47;4384089;32;34375;-87
2023/12/13 03:18:34;;;;;;;;;;;;;;;6.93;83.07;98345.34;4388995;32;34310;-88
2023/12/13 03:21:04;;;;;;;;;;;;;;;7.01;82.02;98342.66;4383621;32;34517;-88
2023/12/13 03:23:39;;;;;;;;;;;;;;;7.02;81.63;98349.50;4386813;32;33715;-89
2023/12/13 03:26:09;;;;;;;;;;;;;;;6.97;82.07;98353.91;4383167;32;34780;-89
2023/12/13 03:28:40;;;;;;;;;;;;;;;6.86;82.29;98343.78;4390367;32;34353;-90
2023/12/13 03:31:13;;;;;;;;;;;;;;;6.86;81.41;98337.78;4382159;32;33418;-90
2023/12/13 03:33:41;;;;;;;;;;;;;;;7.09;80.73;98340.75;4380404;32;32120;-89
2023/12/13 03:36:13;;;;;;;;;;;;;;;6.85;82.08;98334.34;4384908;32;33741;-88
2023/12/13 03:38:43;;;;;;;;;;;;;;;6.68;82.91;98334.69;4377365;32;33684;-88
2023/12/13 03:41:13;;;;;;;;;;;;;;;6.77;82.22;98339.69;4391354;32;33678;-87
2023/12/13 03:43:41;;;;;;;;;;;;;;;6.83;81.69;98321.50;4385888;32;33633;-88
2023/12/13 03:46:11;;;;;;;;;;;;;;;6.76;82.36;98319.91;4384155;32;33871;-88
2023/12/13 03:48:40;;;;;;;;;;;;;;;6.78;81.19;98317.31;4376712;32;33219;-87
2023/12/13 03:51:12;;;;;;;;;;;;;;;6.72;81.46;98304.56;4386725;32;33733;-89
2023/12/13 03:53:42;;;;;;;;;;;;;;;6.86;80.96;98307.69;4385510;32;32109;-87
2023/12/13 03:56:18;;;;;;;;;;;;;;;6.37;82.76;98299.19;4376045;32;34158;-87
2023/12/13 03:58:47;;;;;;;;;;;;;;;6.55;82.30;98285.13;4378573;32;33934;-87
2023/12/13 04:01:18;;;;;;;;;;;;;;;6.82;81.32;98280.31;4380994;32;34713;-86
2023/12/13 04:03:47;;;;;;;;;;;;;;;6.60;82.25;98287.63;4376916;32;33113;-86
2023/12/13 04:06:16;;;;;;;;;;;;;;;6.34;83.75;98296.69;4380408;32;34451;-87
2023/12/13 04:08:48;;;;;;;;;;;;;;;5.74;88.64;98296.84;4387384;32;34291;-87
2023/12/13 04:11:18;;;;;;;;;;;;;;;6.20;85.11;98298.66;4377718;32;33503;-86
2023/12/13 04:13:46;;;;;;;;;;;;;;;6.34;84.69;98293.25;4394175;32;32491;-86
2023/12/13 04:16:15;;;;;;;;;;;;;;;6.31;85.09;98294.16;4404978;32;33709;-87
2023/12/13 04:18:44;;;;;;;;;;;;;;;5.84;86.69;98292.38;4402034;32;34907;-87
2023/12/13 04:21:15;;;;;;;;;;;;;;;6.03;86.00;98291.22;4402773;32;33805;-88
2023/12/13 04:23:54;;;;;;;;;;;;;;;5.59;88.42;98289.38;4403326;32;33261;-87
2023/12/13 04:26:25;;;;;;;;;;;;;;;5.89;89.66;98285.44;4406787;32;34671;-87
2023/12/13 04:28:53;;;;;;;;;;;;;;;6.33;85.76;98288.97;4400512;32;32900;-88
2023/12/13 04:31:24;;;;;;;;;;;;;;;6.55;83.74;98274.81;4392469;32;33745;-88
2023/12/13 04:33:54;;;;;;;;;;;;;;;6.53;83.34;98275.75;4402191;32;32873;-88
2023/12/13 04:36:23;;;;;;;;;;;;;;;6.61;82.71;98271.25;4399056;32;33741;-88
2023/12/13 04:38:55;;;;;;;;;;;;;;;6.56;83.05;98270.50;4394896;32;33785;-87
2023/12/13 04:41:38;;;;;;;;;;;;;;;6.23;84.11;98272.84;4393055;32;33628;-88
2023/12/13 04:44:13;;;;;;;;;;;;;;;6.73;81.90;98272.75;4393821;32;32338;-87
2023/12/13 04:46:43;;;;;;;;;;;;;;;6.64;81.50;98268.63;4396123;32;33774;-87
2023/12/13 04:49:12;;;;;;;;;;;;;;;6.11;85.02;98271.37;4401448;32;34555;-88
2023/12/13 04:51:40;;;;;;;;;;;;;;;6.49;83.67;98268.94;4398634;32;33650;-87
2023/12/13 04:54:11;;;;;;;;;;;;;;;6.64;81.85;98271.19;4395250;32;32810;-88
2023/12/13 04:56:42;;;;;;;;;;;;;;;6.72;81.82;98277.06;4397038;32;33643;-87
2023/12/13 04:59:11;;;;;;;;;;;;;;;6.98;80.70;98283.38;4393948;32;34386;-89
2023/12/13 05:01:44;;;;;;;;;;;;;;;6.90;80.85;98286.13;4403715;32;33967;-87
2023/12/13 05:04:13;;;;;;;;;;;;;;;6.90;80.65;98285.28;4395981;32;33325;-87
2023/12/13 05:06:45;;;;;;;;;;;;;;;7.09;79.47;98285.75;4398241;32;33507;-86
2023/12/13 05:09:13;;;;;;;;;;;;;;;6.90;80.41;98277.56;4397578;32;34883;-86
2023/12/13 05:11:45;;;;;;;;;;;;;;;7.09;79.30;98271.13;4396489;32;33476;-85
2023/12/13 05:14:22;;;;;;;;;;;;;;;6.99;79.94;98270.47;4404814;32;33213;-85
2023/12/13 05:16:52;;;;;;;;;;;;;;;7.00;79.93;98279.91;4392999;32;33628;-85
2023/12/13 05:19:22;;;;;;;;;;;;;;;7.07;79.46;98288.34;4392546;32;34385;-86
2023/12/13 05:21:51;;;;;;;;;;;;;;;7.16;78.43;98288.16;4396019;32;34945;-86
2023/12/13 05:24:23;;;;;;;;;;;;;;;7.38;77.48;98287.69;4400333;32;33278;-86
2023/12/13 05:26:54;;;;;;;;;;;;;;;7.11;79.17;98290.00;4402582;32;33697;-85
2023/12/13 05:29:25;;;;;;;;;;;;;;;7.28;78.46;98286.19;4399546;32;34702;-86
2023/12/13 05:31:55;;;;;;;;;;;;;;;7.27;77.99;98277.59;4394754;32;34012;-86
2023/12/13 05:34:25;;;;;;;;;;;;;;;7.10;79.45;98266.81;4392162;32;33348;-84
2023/12/13 05:36:54;;;;;;;;;;;;;;;7.02;79.94;98274.72;4399658;32;34787;-85
2023/12/13 05:39:23;;;;;;;;;;;;;;;6.90;80.43;98278.41;4387486;32;33898;-85
2023/12/13 05:41:56;;;;;;;;;;;;;;;6.97;80.10;98268.81;4388843;32;33772;-86
2023/12/13 05:44:29;;;;;;;;;;;;;;;7.02;79.32;98262.66;4400091;32;32812;-85
2023/12/13 05:46:59;;;;;;;;;;;;;;;6.91;79.88;98256.91;4399961;32;35966;-86
2023/12/13 05:49:28;;;;;;;;;;;;;;;7.01;79.34;98257.56;4390296;32;32295;-86
2023/12/13 05:51:58;;;;;;;;;;;;;;;7.01;78.84;98252.41;4398050;32;33033;-86
2023/12/13 05:54:32;;;;;;;;;;;;;;;6.96;79.13;98256.78;4380597;32;32003;-85
2023/12/13 05:57:01;;;;;;;;;;;;;;;6.94;79.38;98253.41;4390779;32;32272;-86
2023/12/13 05:59:31;;;;;;;;;;;;;;;6.81;79.79;98252.81;4397348;32;34151;-87
2023/12/13 06:02:01;;;;;;;;;;;;;;;6.84;79.61;98243.28;4393569;32;35926;-86
2023/12/13 06:04:30;;;;;;;;;;;;;;;7.00;79.44;98250.69;4394241;32;32636;-86
2023/12/13 06:07:00;;;;;;;;;;;;;;;7.25;77.98;98248.44;4389920;32;34554;-86
2023/12/13 06:09:30;;;;;;;;;;;;;;;7.09;78.78;98247.06;4395558;32;33703;-86
2023/12/13 06:12:03;;;;;;;;;;;;;;;7.03;79.24;98248.91;4398500;32;34224;-86
2023/12/13 06:14:39;;;;;;;;;;;;;;;7.09;78.83;98242.75;4389054;32;33060;-86
2023/12/13 06:17:09;;;;;;;;;;;;;;;6.90;79.46;98229.41;4386375;32;37599;-86
2023/12/13 06:19:45;;;;;;;;;;;;;;;6.99;79.01;98220.66;4393119;32;34674;-86
2023/12/13 06:22:17;;;;;;;;;;;;;;;6.96;78.88;98220.69;4400202;32;34115;-87
2023/12/13 06:24:46;;;;;;;;;;;;;;;7.07;78.69;98223.88;4397096;32;33041;-87
2023/12/13 06:27:15;;;;;;;;;;;;;;;7.07;78.69;98216.16;4396157;32;34079;-87
2023/12/13 06:29:50;;;;;;;;;;;;;;;7.07;78.48;98228.19;4390914;32;33936;-86
2023/12/13 06:32:22;;;;;;;;;;;;;;;7.23;76.92;98222.66;4390183;32;34775;-87
2023/12/13 06:34:52;;;;;;;;;;;;;;;6.88;78.45;98227.75;4397130;32;33483;-87
2023/12/13 06:39:54;;;;;;;;;;;;;;;7.14;77.49;98240.06;4391975;32;33591;-87
2023/12/13 06:44:56;;;;;;;;;;;;;;;7.02;78.29;98233.47;4379300;32;32096;-87
2023/12/13 06:47:30;;;;;;;;;;;;;;;6.93;78.75;98238.81;4399634;32;34144;-87
2023/12/13 06:49:59;;;;;;;;;;;;;;;6.91;78.98;98235.41;4392958;32;35271;-87
2023/12/13 06:52:31;;;;;;;;;;;;;;;6.94;78.54;98235.38;4395391;32;34907;-90
2023/12/13 06:54:59;;;;;;;;;;;;;;;7.16;77.36;98236.56;4376764;32;30163;-88
2023/12/13 06:57:30;;;;;;;;;;;;;;;7.13;77.19;98235.78;4389423;32;34752;-88
2023/12/13 06:59:59;;;;;;;;;;;;;;;7.07;77.87;98243.69;4385427;32;34301;-88
2023/12/13 07:02:36;;;;;;;;;;;;;;;6.93;78.77;98242.22;4385763;32;33962;-87
2023/12/13 07:05:07;;;;;;;;;;;;;;;6.99;78.54;98247.28;4386643;32;33169;-88
2023/12/13 07:07:36;;;;;;;;;;;;;;;6.95;79.06;98245.63;4387121;32;34334;-90
2023/12/13 07:10:05;;;;;;;;;;;;;;;7.06;78.68;98242.84;4389118;32;35002;-89
2023/12/13 07:12:34;;;;;;;;;;;;;;;7.26;77.47;98227.75;4383760;32;33991;-87
2023/12/13 07:15:03;;;;;;;;;;;;;;;7.36;77.06;98232.69;4384074;32;32717;-89
2023/12/13 07:17:35;;;;;;;;;;;;;;;7.16;78.50;98240.91;4386844;32;33292;-89
2023/12/13 07:20:05;;;;;;;;;;;;;;;7.09;78.93;98242.75;4401280;32;33663;-90
2023/12/13 07:22:39;;;;;;;;;;;;;;;7.13;78.89;98236.66;4394832;32;33971;-88
2023/12/13 07:25:16;;;;;;;;;;;;;;;7.22;78.47;98240.75;4387685;32;33328;-89
2023/12/13 07:28:04;;;;;;;;;;;;;;;7.17;78.87;98237.41;4389388;32;33546;-89
2023/12/13 07:30:32;;;;;;;;;;;;;;;7.21;78.63;98234.75;4394695;32;34812;-88
2023/12/13 07:33:07;;;;;;;;;;;;;;;7.27;78.91;98238.91;4397569;32;32555;-89
2023/12/13 07:35:47;;;;;;;;;;;;;;;7.30;78.56;98240.56;4386227;32;33757;-89
2023/12/13 07:38:16;;;;;;;;;;;;;;;7.22;79.03;98240.75;4398318;32;33870;-88
2023/12/13 07:40:48;;;;;;;;;;;;;;;7.31;78.68;98237.09;4395496;32;34992;-91
2023/12/13 07:43:20;;;;;;;;;;;;;;;7.40;78.48;98236.91;4394475;32;33853;-88
2023/12/13 07:45:55;;;;;;;;;;;;;;;7.32;78.76;98231.94;4392878;32;33449;-90
2023/12/13 07:48:35;;;;;;;;;;;;;;;7.38;78.72;98228.34;4377957;32;33629;-89
2023/12/13 07:51:06;;;;;;;;;;;;;;;7.34;78.55;98219.81;4373386;32;33972;-89
2023/12/13 07:53:41;;;;;;;;;;;;;;;7.36;78.49;98228.38;4388315;32;34441;-89
2023/12/13 07:56:12;;;;;;;;;;;;;;;7.33;78.23;98222.44;4392056;32;33668;-89
2023/12/13 07:58:58;;;;;;;;;;;;;;;7.41;78.34;98210.19;4402172;32;34070;-91
2023/12/13 08:01:28;;;;;;;;;;;;;;;7.42;78.16;98202.44;4380920;32;35716;-89
2023/12/13 08:03:59;;;;;;;;;;;;;;;7.24;78.45;98201.13;4388567;32;33537;-89
2023/12/13 08:06:28;;;;;;;;;;;;;;;7.16;78.88;98195.31;4387290;32;33835;-92
2023/12/13 08:08:56;;;;;;;;;;;;;;;7.24;77.85;98188.22;4387228;32;33623;-89
2023/12/13 08:11:29;;;;;;;;;;;;;;;6.61;81.84;98189.66;4391643;32;34198;-89
2023/12/13 08:14:04;;;;;;;;;;;;;;;6.79;81.95;98184.97;4397574;32;35091;-89
2023/12/13 08:16:33;;;;;;;;;;;;;;;6.84;81.42;98185.75;4393250;32;33029;-89
2023/12/13 08:19:06;;;;;;;;;;;;;;;6.98;81.03;98188.00;4378914;32;34596;-88
2023/12/13 08:21:40;;;;;;;;;;;;;;;6.67;82.19;98188.69;4374827;32;33399;-89
2023/12/13 08:24:12;;;;;;;;;;;;;;;6.77;82.23;98185.03;4382985;32;33161;-89
2023/12/13 08:26:46;;;;;;;;;;;;;;;7.00;80.93;98189.66;4375060;32;33921;-89
2023/12/13 08:29:18;;;;;;;;;;;;;;;6.83;82.98;98190.03;4388127;32;35118;-90
2023/12/13 08:32:01;;;;;;;;;;;;;;;6.87;81.74;98187.41;4376554;32;35571;-90
2023/12/13 09:00:30;;;;;;;;;;;;;;;6.96;80.83;98192.34;4235841;33;33129;-91
2023/12/13 09:03:05;;;;;;;;;;;;;;;7.07;80.52;98194.69;4238776;33;32134;-93
2023/12/13 09:05:34;;;;;;;;;;;;;;;6.66;82.72;98189.56;4222437;33;34806;-91
2023/12/13 09:08:06;;;;;;;;;;;;;;;6.91;82.31;98187.31;4232767;33;36695;-93
2023/12/13 09:10:35;;;;;;;;;;;;;;;6.85;81.82;98179.69;4221817;33;32084;-91
2023/12/13 09:13:09;;;;;;;;;;;;;;;7.03;80.44;98178.41;4226832;33;33158;-92
2023/12/13 09:15:40;;;;;;;;;;;;;;;6.93;82.14;98179.53;4237954;33;33231;-92
2023/12/13 09:18:11;;;;;;;;;;;;;;;6.94;82.25;98179.50;4242414;33;34126;-91
2023/12/13 09:24:54;;;;;;;;;;;;;;;7.19;80.68;98177.19;4252658;33;33057;-93
2023/12/13 09:27:32;;;;;;;;;;;;;;;6.99;81.42;98162.19;4267909;33;35365;-94
2023/12/13 09:30:11;;;;;;;;;;;;;;;7.32;79.93;98182.03;4267981;33;34533;-93
2023/12/13 09:33:04;;;;;;;;;;;;;;;7.23;80.86;98196.88;4254925;33;890813;-94
2023/12/13 10:05:56;;;;;;;;;;;;;;;7.50;79.42;98184.19;4143395;34;34526;-93
2023/12/13 11:09:52;;;;;;;;;;;;;;;7.94;79.42;98106.47;4202818;33;34358;-92
2023/12/13 11:12:22;;;;;;;;;;;;;;;7.97;79.19;98099.44;4201696;34;34730;-93
2023/12/13 11:14:51;;;;;;;;;;;;;;;7.94;79.66;98098.72;4225542;33;33433;-92
2023/12/13 11:17:21;;;;;;;;;;;;;;;7.96;79.37;98097.78;4241617;33;36361;-92
2023/12/13 11:19:53;;;;;;;;;;;;;;;7.79;79.89;98094.81;4255661;33;33112;-92
2023/12/13 11:22:22;;;;;;;;;;;;;;;7.98;79.67;98090.84;4244514;33;34466;-92
2023/12/13 11:25:03;;;;;;;;;;;;;;;8.12;78.74;98088.72;4251403;33;33492;-93
2023/12/13 11:27:35;;;;;;;;;;;;;;;8.05;79.53;98088.94;4286077;33;33235;-92
2023/12/13 11:30:36;;;;;;;;;;;;;;;8.24;78.03;98082.34;4271069;33;34556;-92
2023/12/13 11:33:11;;;;;;;;;;;;;;;8.06;79.28;98080.28;4268645;33;34343;-93
2023/12/13 11:38:24;;;;;;;;;;;;;;;8.01;79.47;98064.91;4264107;33;33604;-92
2023/12/13 11:40:56;;;;;;;;;;;;;;;8.17;79.10;98067.91;4270501;33;32982;-92
2023/12/13 11:43:28;;;;;;;;;;;;;;;8.12;78.85;98064.63;4267606;33;33502;-92
2023/12/13 11:45:57;;;;;;;;;;;;;;;8.21;79.04;98068.66;4268026;33;33720;-93
2023/12/13 11:48:29;;;;;;;;;;;;;;;8.13;78.74;98071.47;4280735;33;33291;-93
2023/12/13 11:50:59;;;;;;;;;;;;;;;8.11;78.77;98065.50;4283692;33;33278;-93
2023/12/13 11:53:32;;;;;;;;;;;;;;;8.11;78.81;98073.25;4272039;33;34375;-92
2023/12/13 11:56:03;;;;;;;;;;;;;;;8.07;79.09;98071.63;4281104;33;33258;-92
2023/12/13 12:01:23;;;;;;;;;;;;;;;8.12;78.96;98070.63;4273092;33;34547;-93
2023/12/13 12:06:52;;;;;;;;;;;;;;;8.31;78.24;98063.19;4269578;33;33707;-93
2023/12/13 12:09:30;;;;;;;;;;;;;;;8.40;77.67;98067.25;4259386;33;34447;-92
2023/12/13 12:12:06;;;;;;;;;;;;;;;8.63;75.23;98063.97;4281048;33;35184;-93
2023/12/13 12:14:47;;;;;;;;;;;;;;;8.70;74.22;98065.47;4264164;33;34560;-93
2023/12/13 12:17:54;;;;;;;;;;;;;;;8.57;74.88;98066.72;4268622;33;35430;-93
2023/12/13 12:20:40;;;;;;;;;;;;;;;8.43;75.33;98071.47;4257225;33;37295;-92
2023/12/13 12:23:39;;;;;;;;;;;;;;;8.13;76.84;98074.03;4276209;33;35036;-93
2023/12/13 12:26:19;;;;;;;;;;;;;;;8.19;77.17;98080.75;4263045;33;34939;-92
2023/12/13 12:29:09;;;;;;;;;;;;;;;8.13;76.65;98081.78;4257464;33;34304;-93
2023/12/13 12:32:11;;;;;;;;;;;;;;;8.00;77.36;98083.91;4269624;33;35215;-94
2023/12/13 12:34:49;;;;;;;;;;;;;;;7.82;78.06;98092.16;4281002;33;33768;-93
2023/12/13 12:37:29;;;;;;;;;;;;;;;7.67;78.97;98091.69;4258480;33;34362;-93
2023/12/13 12:40:00;;;;;;;;;;;;;;;7.59;78.98;98088.47;4282899;33;33203;-93
2023/12/13 12:42:31;;;;;;;;;;;;;;;7.72;79.13;98101.03;4271219;33;33580;-93
2023/12/13 12:45:01;;;;;;;;;;;;;;;7.55;79.69;98098.91;4273329;33;34809;-92
2023/12/13 12:47:37;;;;;;;;;;;;;;;7.43;80.32;98093.19;4267995;33;34816;-92
2023/12/13 12:50:07;;;;;;;;;;;;;;;7.58;79.92;98101.41;4280451;33;33908;-94
2023/12/13 12:52:44;;;;;;;;;;;;;;;7.52;80.19;98106.75;4270530;33;34143;-93
2023/12/13 12:55:16;;;;;;;;;;;;;;;7.49;80.64;98089.59;4277997;33;33709;-93
2023/12/13 12:57:49;;;;;;;;;;;;;;;7.64;79.29;98089.19;4273013;33;33428;-93
2023/12/13 13:00:34;;;;;;;;;;;;;;;7.45;79.91;98075.94;4278521;33;35664;-93
2023/12/13 13:03:12;;;;;;;;;;;;;;;7.48;80.15;98077.56;4259312;33;35275;-93
2023/12/13 13:05:45;;;;;;;;;;;;;;;7.69;79.13;98071.84;4269118;33;35028;-93
2023/12/13 13:08:25;;;;;;;;;;;;;;;7.60;79.00;98077.25;4281220;33;34122;-93
2023/12/13 13:10:58;;;;;;;;;;;;;;;7.57;79.49;98081.66;4284212;33;31918;-92
2023/12/13 13:13:36;;;;;;;;;;;;;;;7.73;78.98;98079.50;4272356;33;33654;-92
2023/12/13 13:16:10;;;;;;;;;;;;;;;7.63;79.26;98069.41;4266891;33;33794;-93
2023/12/13 13:18:44;;;;;;;;;;;;;;;7.65;78.92;98075.38;4268215;33;33342;-93
2023/12/13 13:21:17;;;;;;;;;;;;;;;7.74;78.49;98063.13;4269501;33;33607;-93
2023/12/13 13:23:46;;;;;;;;;;;;;;;7.62;79.08;98054.00;4284184;33;35384;-94
2023/12/13 13:26:59;;;;;;;;;;;;;;;7.59;79.70;98065.25;4272723;33;35212;-93
2023/12/13 13:29:56;;;;;;;;;;;;;;;7.54;80.17;98072.25;4273600;33;34447;-92
2023/12/13 13:32:38;;;;;;;;;;;;;;;7.66;79.10;98065.94;4271973;33;34334;-93
2023/12/13 13:38:34;;;;;;;;;;;;;;;7.82;78.40;98056.84;4269368;33;35116;-93
2023/12/13 13:41:18;;;;;;;;;;;;;;;7.86;78.21;98050.72;4292415;33;35008;-93
2023/12/13 13:44:02;;;;;;;;;;;;;;;7.70;79.07;98047.69;4299260;33;34186;-94
2023/12/13 13:46:43;;;;;;;;;;;;;;;7.85;77.75;98059.38;4299053;33;37811;-93
2023/12/13 13:49:49;;;;;;;;;;;;;;;8.06;76.57;98059.63;4303638;33;35256;-93
2023/12/13 13:52:36;;;;;;;;;;;;;;;7.65;78.29;98065.06;4312578;33;34947;-92
2023/12/13 13:58:30;;;;;;;;;;;;;;;7.58;78.95;98060.13;4299315;33;35237;-94
2023/12/13 14:01:33;;;;;;;;;;;;;;;7.68;78.28;98061.53;4312958;33;35697;-93
2023/12/13 14:07:14;;;;;;;;;;;;;;;7.65;78.75;98069.38;4311460;33;34270;-93
2023/12/13 14:16:33;;;;;;;;;;;;;;;7.58;78.94;98067.84;4298928;33;36261;-92
2023/12/13 14:19:14;;;;;;;;;;;;;;;7.97;76.74;98060.72;4313428;33;34463;-94
2023/12/13 14:22:10;;;;;;;;;;;;;;;7.77;77.43;98063.88;4315566;33;34969;-93
2023/12/13 14:25:08;;;;;;;;;;;;;;;7.82;76.83;98066.34;4303049;33;34040;-93
2023/12/13 14:28:05;;;;;;;;;;;;;;;7.44;79.03;98076.81;4303000;33;35156;-92
2023/12/13 14:34:12;;;;;;;;;;;;;;;7.53;79.26;98074.88;4302899;33;34515;-93
2023/12/13 14:40:26;;;;;;;;;;;;;;;7.58;78.74;98076.44;4304741;33;34359;-93
2023/12/13 17:24:00;;;;;;;;;;;;;;;7.76;79.62;98020.91;4943148;27;20000;-92
2023/12/13 17:26:38;;;;;;;;;;;;;;;7.78;80.02;98023.41;4321413;33;34410;-94
2023/12/13 17:29:16;;;;;;;;;;;;;;;7.76;79.95;98020.06;4311304;33;34492;-93
2023/12/13 17:31:59;;;;;;;;;;;;;;;7.68;80.65;98018.53;4299470;33;34835;-91
2023/12/13 17:34:28;;;;;;;;;;;;;;;7.86;79.48;98027.47;4316077;33;34390;-92
2023/12/13 17:37:06;;;;;;;;;;;;;;;7.78;79.68;98029.44;4312334;33;33944;-92
2023/12/13 17:39:37;;;;;;;;;;;;;;;7.86;79.63;98039.56;4313064;33;33248;-92
2023/12/13 17:42:07;;;;;;;;;;;;;;;7.85;79.20;98037.84;4302710;33;33361;-93
2023/12/13 17:44:45;;;;;;;;;;;;;;;7.82;79.36;98045.69;4297440;33;32492;-94
2023/12/13 17:47:17;;;;;;;;;;;;;;;7.76;79.22;98038.12;4294127;33;34850;-92
2023/12/13 17:49:47;;;;;;;;;;;;;;;7.74;79.39;98027.84;4306461;33;35127;-92
2023/12/13 17:52:25;;;;;;;;;;;;;;;7.78;78.97;98033.75;4314743;33;34765;-91
2023/12/13 17:54:58;;;;;;;;;;;;;;;7.71;79.17;98038.25;4284816;33;33353;-92
2023/12/13 17:57:28;;;;;;;;;;;;;;;7.86;78.88;98042.13;4302437;33;33948;-92
2023/12/13 17:59:58;;;;;;;;;;;;;;;7.85;78.80;98053.31;4282374;33;32937;-92
2023/12/13 18:02:29;;;;;;;;;;;;;;;7.82;78.86;98040.50;4282012;33;33480;-92
2023/12/13 18:05:00;;;;;;;;;;;;;;;7.63;79.29;98043.59;4294320;33;34874;-92
2023/12/13 18:07:34;;;;;;;;;;;;;;;7.63;79.53;98043.59;4281233;33;32431;-91
2023/12/13 18:20:46;;;;;;;;;;;;;;;7.74;78.49;98029.56;4203476;33;34342;-94
2023/12/13 18:23:52;;;;;;;;;;;;;;;7.68;78.39;98022.81;4205790;33;35304;-92
2023/12/13 18:37:00;;;;;;;;;;;;;;;7.65;78.94;98033.25;4165229;34;34649;-93
2023/12/13 18:54:24;;;;;;;;;;;;;;;8.01;76.74;98040.84;4459560;31;994491;-93
2023/12/13 18:57:03;;;;;;;;;;;;;;;8.01;76.74;98040.84;4493595;31;32044;-93
2023/12/13 18:59:36;;;;;;;;;;;;;;;7.51;78.03;98049.09;4495626;31;33889;-93
2023/12/13 19:02:26;;;;;;;;;;;;;;;7.54;78.13;98048.16;4487535;31;35113;-94
2023/12/13 19:04:58;;;;;;;;;;;;;;;7.56;78.21;98054.97;4502605;31;32666;-92
2023/12/13 19:07:41;;;;;;;;;;;;;;;7.51;78.42;98054.25;4485924;31;31871;-92
2023/12/13 19:10:17;;;;;;;;;;;;;;;7.38;79.05;98060.66;4495984;31;33829;-94
2023/12/13 19:12:54;;;;;;;;;;;;;;;7.44;79.02;98056.19;4490659;31;33801;-95
2023/12/13 19:15:23;;;;;;;;;;;;;;;7.63;78.31;98050.50;4496545;31;33205;-92
2023/12/13 19:18:01;;;;;;;;;;;;;;;7.57;78.54;98056.69;4492281;31;33708;-92
2023/12/13 19:20:41;;;;;;;;;;;;;;;7.56;78.45;98064.47;4492673;31;34029;-93
2023/12/13 19:23:20;;;;;;;;;;;;;;;7.56;78.48;98073.03;4491526;31;34327;-93
2023/12/13 19:25:54;;;;;;;;;;;;;;;7.64;78.57;98078.03;4487094;31;34087;-93
2023/12/13 19:28:30;;;;;;;;;;;;;;;7.62;78.23;98082.38;4493065;31;34027;-93
2023/12/13 19:31:02;;;;;;;;;;;;;;;7.69;78.13;98105.41;4483822;31;33338;-93